Aeroporto :
LOGIN :

Iscrizione | Disclaimer

   EN    FR    IT 

 










Sommario :    VFR   VFR Marginale   IFR   IFR Intensivo   IFR Molto Intensivo
Visibilità : 
Base nubi : 
>= 8 km
>= 3000ft
5 / 8 km
1000 / 3000 ft
1500m / 5 km
500 / 1000 ft
800 / 1500m
200 / 500 ft
< 800m
< 200 ft
Simboli :   Temporali  Nebbia  Neve Forte  Precipitazioni Forti  Vento > 20 kt
SIGMETs :   Varie  Temporali  Ghiacco  Turbolenza  Onda orograficha  Ceneri Vulcaniche






- Altitudine del aeroporto : 46 ft
- Codice IATA : SNN


EINN - Shannon

ULTIMO METAR :
  • 100300Z 11005KT CAVOK 10/08 Q1021 NOSIG

METARs OBSOLETI :
  • 100230Z 11003KT CAVOK 10/08 Q1021 NOSIG
  • 100200Z 13004KT CAVOK 11/08 Q1022 NOSIG
  • 100130Z 13004KT CAVOK 11/08 Q1022 NOSIG
  • 100100Z 15002KT CAVOK 11/08 Q1022 NOSIG
  • 100030Z 14002KT CAVOK 10/07 Q1022 NOSIG

TAF TAF EINN
Valido dal 10 a 00 ore il 11 a 00 ore UTC


092300Z 1000/1024 14005KT 9999 FEW035
PROB40
TEMPO 1000/1007 VRB03KT 3000 BR SCT005
TEMPO 1011/1019 -SHRA FEW018CB
PROB30
TEMPO 1012/1018 5000
BECMG 1013/1015 17008KT
BECMG 1017/1019 VRB03KT
TEMPO 1019/1024 BKN010
PROB30
TEMPO 1021/1024 3000 -RA BR BKN007



MetMap, La meteo Aeronautica in un colpo d'occhio ! - Copyright ORBIFLY Dicembre 2007 - Disclaimer

ORBIFLY MET'MAP TEAM :

Programmazione e sviluppo : Alexandra Zaïnal
Concezione : Baudouin d'Aumeries
Aiuto per la programmazione : Marc-Olivier Méhu
Supporto tecnico e logistico : Manuel Goepfert
Aiuto per la traduzione : Arnaldo La Scala

Contatto : metmap@orbifly.com




FONTI E CREDITI :

   NOAA